createdAt,value
2022-09-23T00:01:01.984Z,93.13
2022-09-23T00:03:31.328Z,93.29
2022-09-23T00:06:00.126Z,93.71
2022-09-23T00:08:26.504Z,93.41
2022-09-23T00:10:53.115Z,93.39
2022-09-23T00:13:19.508Z,93.02
2022-09-23T00:15:46.755Z,93.32
2022-09-23T00:18:13.299Z,91.29
2022-09-23T00:20:40.424Z,90.99
2022-09-23T00:23:06.902Z,92.85
2022-09-23T00:25:33.818Z,92.43
2022-09-23T00:28:00.275Z,93.66
2022-09-23T00:30:27.250Z,93.62
2022-09-23T00:32:53.774Z,93.97
2022-09-23T00:35:20.260Z,95.18
2022-09-23T00:37:46.681Z,94.67
2022-09-23T00:40:13.212Z,94.44
2022-09-23T00:42:46.703Z,93.69
2022-09-23T00:45:13.412Z,93.94
2022-09-23T00:47:45.939Z,94.79
2022-09-23T00:50:24.556Z,94.74
2022-09-23T00:52:52.627Z,94.88
2022-09-23T00:55:46.004Z,95.67
2022-09-23T00:58:17.759Z,93.92
2022-09-23T01:00:46.422Z,92.51
2022-09-23T01:03:13.882Z,91.46
2022-09-23T01:05:41.882Z,93.93
2022-09-23T01:08:12.800Z,94.76
2022-09-23T01:10:57.556Z,95.25
2022-09-23T01:13:51.968Z,94.85
2022-09-23T01:16:34.030Z,94.70
2022-09-23T01:19:28.271Z,95.63
2022-09-23T01:22:22.747Z,95.07
2022-09-23T01:25:05.235Z,92.61
2022-09-23T01:28:09.291Z,91.81
2022-09-23T01:30:53.773Z,92.42
2022-09-23T01:33:30.740Z,91.56
2022-09-23T01:36:12.510Z,91.82
2022-09-23T01:38:59.077Z,92.12
2022-09-23T01:41:39.143Z,92.23
2022-09-23T01:44:10.103Z,92.76
2022-09-23T01:46:51.594Z,92.49
2022-09-23T01:49:25.242Z,93.06
2022-09-23T01:51:59.236Z,93.64
2022-09-23T01:54:38.539Z,93.61
2022-09-23T01:57:14.320Z,94.13
2022-09-23T01:59:50.464Z,92.25
2022-09-23T02:02:28.253Z,93.56
2022-09-23T02:05:01.779Z,93.91
2022-09-23T02:07:50.892Z,94.42
2022-09-23T02:10:27.343Z,93.74
2022-09-23T02:13:01.277Z,92.85
2022-09-23T02:15:35.163Z,91.59
2022-09-23T02:18:13.022Z,92.71
2022-09-23T02:20:42.232Z,92.70
2022-09-23T02:23:15.707Z,93.03
2022-09-23T02:25:58.076Z,93.76
2022-09-23T02:28:50.934Z,95.05
2022-09-23T02:31:30.600Z,93.81
2022-09-23T02:34:17.379Z,94.13
2022-09-23T02:36:59.376Z,92.29
2022-09-23T02:39:36.694Z,93.12
2022-09-23T02:42:12.680Z,93.41
2022-09-23T02:44:40.567Z,93.42
2022-09-23T02:47:07.619Z,92.92
2022-09-23T02:49:35.181Z,92.52
2022-09-23T02:52:04.815Z,93.80
2022-09-23T02:54:33.651Z,93.81
2022-09-23T02:57:02.749Z,93.45
2022-09-23T02:59:30.494Z,94.54
2022-09-23T03:02:23.257Z,94.60
2022-09-23T03:05:12.632Z,94.60
2022-09-23T03:08:19.214Z,93.77
2022-09-23T03:11:07.488Z,94.53
2022-09-23T03:13:53.207Z,93.92
2022-09-23T03:16:37.901Z,94.17
2022-09-23T03:19:33.139Z,94.44
2022-09-23T03:22:08.243Z,93.25
2022-09-23T03:24:37.727Z,91.69
2022-09-23T03:27:13.691Z,92.00
2022-09-23T03:29:47.128Z,93.08
2022-09-23T03:32:17.730Z,92.55
2022-09-23T03:34:48.437Z,93.16
2022-09-23T03:37:24.210Z,93.49
2022-09-23T03:40:07.046Z,94.26
2022-09-23T03:42:34.675Z,94.64
2022-09-23T03:45:07.280Z,94.25
2022-09-23T03:47:33.666Z,95.43
2022-09-23T03:50:00.152Z,94.63
2022-09-23T03:52:27.210Z,94.82
2022-09-23T03:54:53.921Z,94.30
2022-09-23T03:57:22.306Z,94.19
2022-09-23T03:59:52.130Z,94.38
2022-09-23T04:02:20.256Z,94.72
2022-09-23T04:04:47.384Z,93.80
2022-09-23T04:07:14.312Z,94.86
2022-09-23T04:09:41.164Z,94.77
2022-09-23T04:12:08.305Z,93.55
2022-09-23T04:14:35.002Z,93.76
2022-09-23T04:17:01.448Z,94.46
2022-09-23T04:19:27.841Z,94.46
2022-09-23T04:21:54.261Z,93.37
2022-09-23T04:24:21.877Z,93.65
2022-09-23T04:26:52.867Z,94.18
2022-09-23T04:29:20.474Z,95.22
2022-09-23T04:31:47.947Z,95.63
2022-09-23T04:34:15.991Z,94.99
2022-09-23T04:36:42.638Z,95.75
2022-09-23T04:39:09.028Z,96.31
2022-09-23T04:41:36.571Z,96.17
2022-09-23T04:44:03.928Z,96.16
2022-09-23T04:46:31.167Z,95.27
2022-09-23T04:48:57.789Z,96.30
2022-09-23T04:51:26.160Z,95.50
2022-09-23T04:53:53.868Z,94.31
2022-09-23T04:56:26.353Z,95.02
2022-09-23T04:58:53.377Z,94.88
2022-09-23T05:01:26.797Z,95.47
2022-09-23T05:03:56.284Z,95.89
2022-09-23T05:06:23.333Z,95.46
2022-09-23T05:08:54.965Z,96.07
2022-09-23T05:11:22.143Z,95.37
2022-09-23T05:13:50.217Z,94.88
2022-09-23T05:16:17.564Z,95.46
2022-09-23T05:18:45.402Z,95.51
2022-09-23T05:21:14.114Z,95.71
2022-09-23T05:23:41.733Z,94.82
2022-09-23T05:26:10.661Z,95.58
2022-09-23T05:28:39.248Z,94.48
2022-09-23T05:31:08.744Z,94.65
2022-09-23T05:33:36.692Z,93.95
2022-09-23T05:36:04.249Z,93.02
2022-09-23T05:38:31.566Z,93.13
2022-09-23T05:40:59.340Z,94.05
2022-09-23T05:43:26.310Z,93.82
2022-09-23T05:46:04.834Z,93.90
2022-09-23T05:48:35.921Z,95.67
2022-09-23T05:51:03.169Z,95.29
2022-09-23T05:53:30.670Z,94.55
2022-09-23T05:55:57.805Z,94.77
2022-09-23T05:58:24.622Z,92.74
2022-09-23T06:00:51.843Z,91.09
2022-09-23T06:03:20.366Z,89.64
2022-09-23T06:05:48.421Z,87.22
2022-09-23T06:08:15.096Z,84.79
2022-09-23T06:10:44.250Z,83.80
2022-09-23T06:13:11.380Z,81.44
2022-09-23T06:15:39.190Z,79.82
2022-09-23T06:18:05.921Z,77.27
2022-09-23T06:20:34.151Z,76.45
2022-09-23T06:23:11.210Z,73.14
2022-09-23T06:25:40.986Z,72.84
2022-09-23T06:28:12.114Z,71.09
2022-09-23T06:30:42.745Z,70.43
2022-09-23T06:33:10.045Z,68.85
2022-09-23T06:35:36.462Z,68.77
2022-09-23T06:38:07.499Z,67.61
2022-09-23T06:40:34.016Z,68.58
2022-09-23T06:43:01.824Z,67.88
2022-09-23T06:45:29.016Z,68.42
2022-09-23T06:47:56.957Z,67.60
2022-09-23T06:50:27.507Z,66.98
2022-09-23T06:52:58.342Z,65.60
2022-09-23T06:55:27.200Z,65.43
2022-09-23T06:57:55.065Z,64.53
2022-09-23T07:00:21.721Z,63.63
2022-09-23T07:02:48.797Z,62.74
2022-09-23T07:05:18.489Z,61.96
2022-09-23T07:07:45.087Z,61.90
2022-09-23T07:10:12.286Z,60.14
2022-09-23T07:12:38.720Z,60.32
2022-09-23T07:15:05.560Z,59.43
2022-09-23T07:17:31.951Z,58.64
2022-09-23T07:19:58.514Z,57.80
2022-09-23T07:22:26.491Z,57.26
2022-09-23T07:24:55.988Z,57.35
2022-09-23T07:27:27.183Z,56.83
2022-09-23T07:29:54.110Z,56.44
2022-09-23T07:32:22.520Z,56.84
2022-09-23T07:34:49.686Z,57.45
2022-09-23T07:37:17.621Z,57.75
2022-09-23T07:39:44.803Z,56.25
2022-09-23T07:42:12.391Z,54.59
2022-09-23T07:44:41.261Z,56.13
2022-09-23T07:47:07.702Z,55.25
2022-09-23T07:49:35.483Z,52.05
2022-09-23T07:52:02.128Z,51.42
2022-09-23T07:54:29.943Z,53.09
2022-09-23T07:56:56.280Z,53.47
2022-09-23T07:59:23.009Z,50.85
2022-09-23T08:01:52.614Z,50.27
2022-09-23T08:04:23.770Z,48.54
2022-09-23T08:06:53.934Z,49.73
2022-09-23T08:09:25.025Z,48.91
2022-09-23T08:11:52.456Z,48.45
2022-09-23T08:14:19.187Z,47.47
2022-09-23T08:16:47.072Z,48.60
2022-09-23T08:19:13.733Z,48.69
2022-09-23T08:21:41.821Z,48.25
2022-09-23T08:24:12.596Z,48.10
2022-09-23T08:26:39.119Z,46.81
2022-09-23T08:29:06.131Z,47.15
2022-09-23T08:31:32.634Z,46.98
2022-09-23T08:33:59.773Z,45.16
2022-09-23T08:36:27.154Z,45.64
2022-09-23T08:38:54.262Z,44.55
2022-09-23T08:41:34.078Z,45.06
2022-09-23T08:44:11.992Z,43.86
2022-09-23T08:46:44.865Z,45.59
2022-09-23T08:49:17.124Z,44.97
2022-09-23T08:51:48.421Z,45.30
2022-09-23T08:54:17.754Z,44.25
2022-09-23T08:56:51.388Z,44.77
2022-09-23T08:59:28.774Z,42.99
2022-09-23T09:02:01.091Z,45.26
2022-09-23T09:04:41.093Z,42.81
2022-09-23T09:07:32.194Z,45.28
2022-09-23T09:10:06.376Z,44.35
2022-09-23T09:12:44.326Z,42.48
2022-09-23T09:15:14.196Z,43.44
2022-09-23T09:17:48.328Z,43.14
2022-09-23T09:20:21.353Z,43.51
2022-09-23T09:22:57.589Z,43.96
2022-09-23T09:25:37.922Z,43.16
2022-09-23T09:28:30.889Z,44.07
2022-09-23T09:31:01.056Z,43.89
2022-09-23T09:33:37.094Z,45.48
2022-09-23T09:36:15.021Z,46.06
2022-09-23T09:38:41.394Z,46.74
2022-09-23T09:41:16.940Z,46.55
2022-09-23T09:43:49.091Z,48.58
2022-09-23T09:46:52.792Z,49.09
2022-09-23T09:49:38.113Z,46.95
2022-09-23T09:52:23.422Z,47.92
2022-09-23T09:54:51.062Z,48.16
2022-09-23T09:57:35.193Z,48.11
2022-09-23T10:00:26.368Z,46.90
2022-09-23T10:02:55.534Z,46.65
2022-09-23T10:05:31.822Z,47.45
2022-09-23T10:08:20.824Z,46.01
2022-09-23T10:11:15.246Z,44.71
2022-09-23T10:13:45.727Z,44.37
2022-09-23T10:16:15.643Z,44.61
2022-09-23T10:18:55.708Z,43.76
2022-09-23T10:21:27.722Z,43.51
2022-09-23T10:23:58.171Z,44.30
2022-09-23T10:26:32.417Z,44.40
2022-09-23T10:29:02.655Z,43.55
2022-09-23T10:31:32.266Z,43.66
2022-09-23T10:34:01.663Z,44.62
2022-09-23T10:36:30.930Z,41.36
2022-09-23T10:39:20.122Z,41.32
2022-09-23T10:42:25.575Z,41.95
2022-09-23T10:45:38.568Z,42.19
2022-09-23T10:48:28.842Z,42.42
2022-09-23T10:50:56.168Z,41.72
2022-09-23T10:54:22.952Z,41.12
2022-09-23T10:57:00.830Z,40.86
2022-09-23T10:59:47.573Z,39.49
2022-09-23T11:02:57.711Z,39.59
2022-09-23T11:05:59.022Z,38.92
2022-09-23T11:08:37.432Z,39.04
2022-09-23T11:11:15.643Z,39.69
2022-09-23T11:14:05.379Z,40.51
2022-09-23T11:16:53.485Z,39.06
2022-09-23T11:19:55.925Z,39.57
2022-09-23T11:22:45.267Z,39.41
2022-09-23T11:25:34.977Z,40.30
2022-09-23T11:28:17.381Z,38.76
2022-09-23T11:31:10.162Z,38.29
2022-09-23T11:33:41.478Z,39.69
2022-09-23T11:36:20.588Z,39.50
2022-09-23T11:38:50.783Z,39.76
2022-09-23T11:41:27.875Z,38.33
2022-09-23T11:44:11.522Z,39.51
2022-09-23T11:46:43.654Z,39.49
2022-09-23T11:49:57.094Z,38.93
2022-09-23T11:52:44.986Z,38.20
2022-09-23T11:55:31.438Z,37.54
2022-09-23T11:58:07.863Z,38.39
2022-09-23T12:00:49.138Z,38.11
2022-09-23T12:03:44.407Z,39.49
2022-09-23T12:06:27.687Z,37.59
2022-09-23T12:09:01.049Z,37.35
2022-09-23T12:11:50.576Z,36.55
2022-09-23T12:14:31.019Z,35.36
2022-09-23T12:17:12.606Z,36.42
2022-09-23T12:19:48.615Z,37.05
2022-09-23T12:22:49.531Z,37.74
2022-09-23T12:25:34.776Z,37.15
2022-09-23T12:28:06.803Z,38.26
2022-09-23T12:30:37.145Z,38.64
2022-09-23T12:33:16.406Z,38.37
2022-09-23T12:35:45.787Z,38.00
2022-09-23T12:38:14.856Z,39.16
2022-09-23T12:40:44.486Z,38.45
2022-09-23T12:43:34.811Z,38.29
2022-09-23T12:46:25.697Z,37.28
2022-09-23T12:48:58.268Z,37.88
2022-09-23T12:51:26.586Z,37.79
2022-09-23T12:53:58.452Z,38.46
2022-09-23T12:56:28.147Z,38.98
2022-09-23T12:58:58.209Z,38.95
2022-09-23T13:01:26.777Z,40.23
2022-09-23T13:04:14.073Z,38.94
2022-09-23T13:06:40.354Z,40.19
2022-09-23T13:09:21.362Z,37.21
2022-09-23T13:11:48.396Z,37.75
2022-09-23T13:14:25.156Z,37.70
2022-09-23T13:16:54.186Z,38.05
2022-09-23T13:19:26.967Z,37.99
2022-09-23T13:21:53.320Z,38.62
2022-09-23T13:24:22.734Z,38.52
2022-09-23T13:26:54.037Z,36.21
2022-09-23T13:29:27.028Z,37.99
2022-09-23T13:32:00.141Z,38.98
2022-09-23T13:34:31.360Z,38.84
2022-09-23T13:36:58.799Z,38.50
2022-09-23T13:39:27.605Z,37.57
2022-09-23T13:42:03.192Z,37.54
2022-09-23T13:44:30.241Z,37.72
2022-09-23T13:46:59.865Z,37.95
2022-09-23T13:49:30.973Z,37.68
2022-09-23T13:51:57.645Z,38.48
2022-09-23T13:54:28.867Z,38.72
2022-09-23T13:56:58.797Z,39.01
2022-09-23T13:59:36.084Z,38.92
2022-09-23T14:02:14.272Z,39.40
2022-09-23T14:04:40.757Z,39.18
2022-09-23T14:07:09.128Z,38.64
2022-09-23T14:09:37.264Z,38.88
2022-09-23T14:12:05.678Z,38.66
2022-09-23T14:14:36.983Z,39.22
2022-09-23T14:17:06.336Z,39.17
2022-09-23T14:19:34.603Z,38.97
2022-09-23T14:22:01.069Z,38.69
2022-09-23T14:24:36.250Z,39.50
2022-09-23T14:27:18.509Z,39.82
2022-09-23T14:29:47.741Z,39.49
2022-09-23T14:32:21.078Z,38.01
2022-09-23T14:35:05.607Z,37.86
2022-09-23T14:37:56.797Z,37.96
2022-09-23T14:40:27.590Z,37.41
2022-09-23T14:43:16.239Z,38.06
2022-09-23T14:45:47.305Z,38.64
2022-09-23T14:48:18.187Z,38.00
2022-09-23T14:50:51.929Z,38.38
2022-09-23T14:53:24.281Z,39.09
2022-09-23T14:55:53.204Z,38.99
2022-09-23T14:58:25.584Z,38.42
2022-09-23T15:01:00.301Z,39.45
2022-09-23T15:03:28.564Z,39.13
2022-09-23T15:06:09.036Z,38.96
2022-09-23T15:08:35.966Z,39.36
2022-09-23T15:11:08.088Z,40.81
2022-09-23T15:13:39.706Z,40.59
2022-09-23T15:16:06.920Z,41.18
2022-09-23T15:18:35.823Z,40.86
2022-09-23T15:21:23.269Z,41.13
2022-09-23T15:23:54.934Z,40.88
2022-09-23T15:26:47.208Z,41.95
2022-09-23T15:29:13.575Z,43.56
2022-09-23T15:31:40.014Z,43.24
2022-09-23T15:34:06.527Z,42.90
2022-09-23T15:36:33.176Z,42.13
2022-09-23T15:39:06.215Z,43.36
2022-09-23T15:41:35.486Z,44.25
2022-09-23T15:44:16.994Z,43.77
2022-09-23T15:46:49.927Z,43.28
2022-09-23T15:49:28.779Z,43.92
2022-09-23T15:51:58.981Z,45.80
2022-09-23T15:54:25.488Z,45.77
2022-09-23T15:56:51.863Z,46.85
2022-09-23T15:59:19.124Z,47.15
2022-09-23T16:01:45.903Z,47.76
2022-09-23T16:04:15.874Z,46.61
2022-09-23T16:06:44.471Z,47.72
2022-09-23T16:09:13.391Z,48.03
2022-09-23T16:11:44.660Z,48.31
2022-09-23T16:14:16.486Z,49.03
2022-09-23T16:16:45.276Z,50.37
2022-09-23T16:19:12.374Z,50.43
2022-09-23T16:21:40.941Z,54.03
2022-09-23T16:24:15.738Z,54.21
2022-09-23T16:26:43.148Z,54.53
2022-09-23T16:29:11.339Z,53.78
2022-09-23T16:31:38.560Z,53.88
2022-09-23T16:34:05.400Z,54.58
2022-09-23T16:36:33.931Z,55.17
2022-09-23T16:39:04.113Z,56.75
2022-09-23T16:41:33.937Z,56.50
2022-09-23T16:44:02.194Z,58.38
2022-09-23T16:46:29.491Z,58.19
2022-09-23T16:48:57.575Z,57.85
2022-09-23T16:51:50.152Z,59.16
2022-09-23T16:54:17.904Z,59.77
2022-09-23T16:56:45.274Z,60.82
2022-09-23T16:59:13.696Z,60.25
2022-09-23T17:01:58.664Z,61.79
2022-09-23T17:04:25.173Z,61.85
2022-09-23T17:06:52.787Z,62.83
2022-09-23T17:09:21.954Z,63.72
2022-09-23T17:11:58.659Z,63.99
2022-09-23T17:14:25.280Z,63.91
2022-09-23T17:16:51.673Z,63.99
2022-09-23T17:19:18.047Z,64.67
2022-09-23T17:21:44.725Z,65.53
2022-09-23T17:24:11.441Z,65.64
2022-09-23T17:26:38.232Z,65.99
2022-09-23T17:29:09.591Z,65.46
2022-09-23T17:31:36.155Z,65.89
2022-09-23T17:34:02.626Z,67.14
2022-09-23T17:36:29.111Z,68.26
2022-09-23T17:38:56.076Z,68.34
2022-09-23T17:41:22.534Z,68.24
2022-09-23T17:43:55.361Z,69.57
2022-09-23T17:46:21.848Z,68.72
2022-09-23T17:48:48.652Z,69.13
2022-09-23T17:51:17.392Z,70.28
2022-09-23T17:53:45.440Z,70.57
2022-09-23T17:56:14.247Z,69.97
2022-09-23T17:58:40.789Z,70.24
2022-09-23T18:01:26.157Z,70.78
2022-09-23T18:04:00.818Z,70.81
2022-09-23T18:06:31.313Z,71.50
2022-09-23T18:09:01.450Z,73.02
2022-09-23T18:11:29.939Z,72.59
2022-09-23T18:14:08.131Z,73.16
2022-09-23T18:16:36.642Z,72.96
2022-09-23T18:19:04.654Z,72.34
2022-09-23T18:21:33.621Z,73.60
2022-09-23T18:24:21.674Z,72.32
2022-09-23T18:26:47.584Z,72.61
2022-09-23T18:29:14.064Z,73.51
2022-09-23T18:31:41.163Z,74.86
2022-09-23T18:34:11.562Z,75.18
2022-09-23T18:36:38.329Z,74.60
2022-09-23T18:39:05.352Z,75.01
2022-09-23T18:41:31.791Z,75.61
2022-09-23T18:44:01.535Z,75.06
2022-09-23T18:46:29.940Z,75.13
2022-09-23T18:49:15.646Z,76.22
2022-09-23T18:51:56.368Z,75.51
2022-09-23T18:54:29.792Z,76.35
2022-09-23T18:56:56.738Z,76.72
2022-09-23T18:59:25.119Z,77.17
2022-09-23T19:01:54.927Z,77.56
2022-09-23T19:04:23.720Z,76.06
2022-09-23T19:06:50.259Z,76.21
2022-09-23T19:09:18.805Z,77.68
2022-09-23T19:11:45.663Z,78.24
2022-09-23T19:14:14.417Z,77.41
2022-09-23T19:16:41.595Z,77.99
2022-09-23T19:19:11.307Z,78.63
2022-09-23T19:21:37.829Z,79.15
2022-09-23T19:24:06.982Z,79.43
2022-09-23T19:26:37.411Z,79.31
2022-09-23T19:29:05.792Z,79.85
2022-09-23T19:31:34.647Z,80.68
2022-09-23T19:34:10.591Z,79.71
2022-09-23T19:36:39.647Z,81.54
2022-09-23T19:39:17.338Z,81.73
2022-09-23T19:41:44.528Z,82.06
2022-09-23T19:44:11.463Z,81.91
2022-09-23T19:46:40.689Z,82.03
2022-09-23T19:49:07.740Z,81.38
2022-09-23T19:51:34.811Z,82.34
2022-09-23T19:54:03.293Z,81.75
2022-09-23T19:56:30.263Z,82.98
2022-09-23T19:58:57.608Z,82.90
2022-09-23T20:01:26.220Z,83.33
2022-09-23T20:03:53.375Z,83.83
2022-09-23T20:06:20.586Z,83.31
2022-09-23T20:08:47.890Z,83.53
2022-09-23T20:11:17.302Z,83.59
2022-09-23T20:13:49.661Z,83.80
2022-09-23T20:16:19.661Z,83.62
2022-09-23T20:18:53.548Z,83.92
2022-09-23T20:21:20.244Z,83.76
2022-09-23T20:23:46.835Z,86.05
2022-09-23T20:26:36.977Z,84.95
2022-09-23T20:29:05.755Z,84.44
2022-09-23T20:31:34.585Z,85.15
2022-09-23T20:34:05.713Z,84.46
2022-09-23T20:36:33.146Z,85.35
2022-09-23T20:39:01.672Z,84.85
2022-09-23T20:41:29.819Z,84.29
2022-09-23T20:44:00.655Z,83.87
2022-09-23T20:46:28.647Z,85.12
2022-09-23T20:48:56.979Z,85.15
2022-09-23T20:51:24.847Z,85.59
2022-09-23T20:53:53.034Z,86.46
2022-09-23T20:56:24.781Z,84.97
2022-09-23T20:58:52.661Z,85.75
2022-09-23T21:01:19.846Z,86.08
2022-09-23T21:03:48.807Z,86.11
2022-09-23T21:06:17.221Z,85.68
2022-09-23T21:08:44.615Z,86.48
2022-09-23T21:11:13.568Z,85.85
2022-09-23T21:13:39.996Z,86.83
2022-09-23T21:16:10.436Z,86.40
2022-09-23T21:18:38.262Z,86.55
2022-09-23T21:21:06.320Z,86.53
2022-09-23T21:23:40.686Z,86.18
2022-09-23T21:26:19.273Z,86.25
2022-09-23T21:28:48.599Z,86.59
2022-09-23T21:31:26.599Z,86.92
2022-09-23T21:33:54.220Z,87.12
2022-09-23T21:36:21.642Z,86.53
2022-09-23T21:38:48.059Z,86.09
2022-09-23T21:41:14.715Z,86.50
2022-09-23T21:43:41.459Z,87.34
2022-09-23T21:46:11.093Z,87.64
2022-09-23T21:48:42.389Z,87.90
2022-09-23T21:51:14.967Z,88.29
2022-09-23T21:53:43.141Z,88.25
2022-09-23T21:56:19.579Z,88.70
2022-09-23T21:58:47.031Z,88.97
2022-09-23T22:01:25.809Z,88.78
2022-09-23T22:04:05.473Z,88.67
2022-09-23T22:06:32.327Z,88.10
2022-09-23T22:09:01.511Z,88.65
2022-09-23T22:11:49.133Z,88.57
2022-09-23T22:14:17.628Z,88.91
2022-09-23T22:16:44.042Z,89.50
2022-09-23T22:19:12.544Z,89.19
2022-09-23T22:21:40.027Z,89.32
2022-09-23T22:24:08.597Z,87.75
2022-09-23T22:26:38.715Z,89.22
2022-09-23T22:29:26.492Z,89.75
2022-09-23T22:32:11.729Z,89.52
2022-09-23T22:34:49.579Z,88.96
2022-09-23T22:37:19.447Z,90.16
2022-09-23T22:39:46.280Z,89.46
2022-09-23T22:42:16.058Z,90.33
2022-09-23T22:44:42.720Z,89.79
2022-09-23T22:47:09.660Z,90.31
2022-09-23T22:49:38.564Z,90.28
2022-09-23T22:52:09.144Z,90.50
2022-09-23T22:54:36.385Z,90.95
2022-09-23T22:57:07.338Z,90.09
2022-09-23T22:59:34.472Z,90.64
2022-09-23T23:02:02.298Z,90.36
2022-09-23T23:04:29.800Z,91.40
2022-09-23T23:06:58.505Z,91.09
2022-09-23T23:09:25.131Z,91.88
2022-09-23T23:11:51.532Z,91.92
2022-09-23T23:14:18.723Z,92.37
2022-09-23T23:16:46.174Z,91.90
2022-09-23T23:19:16.734Z,91.71
2022-09-23T23:21:46.128Z,91.73
2022-09-23T23:24:30.811Z,91.91
2022-09-23T23:26:57.274Z,91.49
2022-09-23T23:29:23.883Z,91.96
2022-09-23T23:31:50.421Z,91.75
2022-09-23T23:34:19.234Z,91.54
2022-09-23T23:36:47.101Z,91.89
2022-09-23T23:39:14.308Z,91.38
2022-09-23T23:41:41.589Z,91.22
2022-09-23T23:44:08.657Z,91.79
2022-09-23T23:46:37.276Z,91.14
2022-09-23T23:49:04.534Z,91.28
2022-09-23T23:51:31.032Z,91.17
2022-09-23T23:53:59.281Z,91.33
2022-09-23T23:56:26.716Z,91.76
2022-09-23T23:59:02.372Z,91.60
